Terminal Aerodrome Forecast
Issued by NWS Portland, ME

Home | Current Version | Previous Version | Text Only | Print | Product List | Glossary On
Versions: 1 2 3 4 5 6 7 8 9 10 11 12 13 14 15 16
000
FTUS41 KGYX 250101 AAA
TAFCON
TAF AMD
KCON 250101Z 2501/2524 30008KT P6SM SCT050 BKN100
     FM250500 30008KT P6SM BKN025 OVC080
     FM251300 30012G22KT P6SM SCT100=

USA.gov is the U.S. government's official web portal to all federal, state and local government web resources and services.